Time;durP1;ratioP1;P1;durP2;ratioP2;P2;SDS_P1;SDS_P2;PMS_P1;PMS_P2;Temp;Humidity;BMP_temperature;BMP_pressure;BME280_temperature;BME280_humidity;BME280_pressure;Samples;Min_cycle;Max_cycle;Signal;HPM_P1;HPM_P2
2022/11/09 00:01:17;;;;;;;4.60;2.05;;;;;;;14.43;65.93;100465.81;5160067;27;20058;-61
2022/11/09 00:03:45;;;;;;;2.70;1.25;;;;;;;14.44;66.02;100456.63;5160414;27;20062;-60
2022/11/09 00:06:13;;;;;;;3.17;1.67;;;;;;;14.43;65.69;100456.91;5158981;27;20505;-60
2022/11/09 00:08:41;;;;;;;4.53;1.75;;;;;;;14.42;65.99;100450.69;5168508;27;20106;-60
2022/11/09 00:11:11;;;;;;;6.05;1.67;;;;;;;14.42;65.97;100453.38;5161254;27;20051;-59
2022/11/09 00:13:41;;;;;;;3.88;1.80;;;;;;;14.42;65.85;100457.97;5163923;27;20047;-60
2022/11/09 00:16:11;;;;;;;4.60;1.60;;;;;;;14.40;66.21;100439.28;5169212;27;20142;-60
2022/11/09 00:18:40;;;;;;;4.85;2.03;;;;;;;14.41;65.92;100449.00;5160680;27;20046;-60
2022/11/09 00:21:09;;;;;;;4.97;1.42;;;;;;;14.40;65.77;100447.38;5166839;27;20038;-60
2022/11/09 00:23:37;;;;;;;2.40;1.27;;;;;;;14.40;66.03;100444.69;5167745;27;20042;-60
2022/11/09 00:26:06;;;;;;;3.55;1.65;;;;;;;14.31;65.89;100433.50;5164171;27;20046;-60
2022/11/09 00:28:36;;;;;;;3.72;1.92;;;;;;;14.39;65.88;100447.63;5168415;27;20402;-60
2022/11/09 00:31:06;;;;;;;4.60;1.60;;;;;;;14.39;66.21;100453.84;5166950;27;20068;-59
2022/11/09 00:33:35;;;;;;;4.60;1.63;;;;;;;14.38;66.21;100446.00;5164182;27;20049;-60
2022/11/09 00:36:06;;;;;;;8.20;1.70;;;;;;;14.34;66.03;100443.81;5165776;27;20049;-60
2022/11/09 00:38:34;;;;;;;4.18;1.67;;;;;;;14.38;65.86;100446.00;5166996;27;20038;-60
2022/11/09 00:41:02;;;;;;;3.20;1.50;;;;;;;14.39;66.25;100443.03;5160438;27;21076;-60
2022/11/09 00:43:29;;;;;;;2.90;1.60;;;;;;;14.37;65.94;100444.38;5165301;27;20057;-60
2022/11/09 00:45:58;;;;;;;4.93;1.98;;;;;;;14.40;66.15;100438.44;5168872;27;20039;-60
2022/11/09 00:48:26;;;;;;;3.50;1.60;;;;;;;14.39;66.23;100448.44;5160707;27;20050;-60
2022/11/09 00:50:56;;;;;;;4.32;1.75;;;;;;;14.39;65.99;100447.63;5168232;27;20047;-60
2022/11/09 00:53:24;;;;;;;3.80;1.30;;;;;;;14.36;66.32;100445.44;5168945;27;20051;-60
2022/11/09 00:55:56;;;;;;;2.35;1.38;;;;;;;14.36;66.21;100440.03;5157123;27;20039;-60
2022/11/09 00:58:25;;;;;;;3.10;1.58;;;;;;;14.38;66.21;100448.72;5167038;27;20049;-60
2022/11/09 01:00:53;;;;;;;4.10;2.03;;;;;;;14.37;66.30;100445.19;5161761;27;20035;-60
2022/11/09 01:03:23;;;;;;;3.97;1.42;;;;;;;14.37;66.36;100458.69;5168019;27;20050;-60
2022/11/09 01:05:51;;;;;;;3.60;1.63;;;;;;;14.36;66.39;100458.97;5168576;27;20049;-60
2022/11/09 01:08:19;;;;;;;3.75;1.35;;;;;;;14.36;65.83;100458.97;5166769;27;20149;-60
2022/11/09 01:10:48;;;;;;;4.53;1.67;;;;;;;14.36;66.18;100457.06;5166461;27;20042;-60
2022/11/09 01:13:18;;;;;;;3.85;1.90;;;;;;;14.35;66.02;100450.03;5166413;27;20047;-59
2022/11/09 01:15:48;;;;;;;5.78;1.83;;;;;;;14.35;65.97;100455.44;5167563;27;20047;-59
2022/11/09 01:18:17;;;;;;;4.65;1.70;;;;;;;14.29;66.03;100462.69;5160038;27;20069;-59
2022/11/09 01:20:48;;;;;;;5.47;1.60;;;;;;;14.34;66.13;100470.03;5162921;27;20039;-59
2022/11/09 01:23:17;;;;;;;3.38;1.50;;;;;;;14.33;66.35;100473.81;5167847;27;20047;-59
2022/11/09 01:25:45;;;;;;;3.60;1.42;;;;;;;14.31;66.19;100473.25;5148918;27;20035;-61
2022/11/09 01:28:13;;;;;;;4.88;1.65;;;;;;;14.29;66.07;100468.09;5161642;27;20059;-58
2022/11/09 01:30:42;;;;;;;3.83;1.60;;;;;;;14.30;66.14;100467.03;5159781;27;20046;-61
2022/11/09 01:33:11;;;;;;;4.63;1.55;;;;;;;14.29;66.19;100473.50;5165299;27;20053;-59
2022/11/09 01:35:40;;;;;;;3.60;1.50;;;;;;;14.28;65.78;100469.16;5170889;27;20044;-58
2022/11/09 01:38:09;;;;;;;4.05;1.63;;;;;;;14.28;66.18;100469.16;5177562;27;20051;-59
2022/11/09 01:40:39;;;;;;;6.80;2.00;;;;;;;14.27;66.03;100469.41;5160654;27;20042;-59
2022/11/09 01:43:15;;;;;;;5.65;1.80;;;;;;;14.26;66.09;100482.13;5165824;27;20055;-59
2022/11/09 01:45:45;;;;;;;5.15;2.08;;;;;;;14.26;66.04;100476.72;5167807;27;20103;-59
2022/11/09 01:48:16;;;;;;;4.40;1.60;;;;;;;14.25;66.30;100472.38;5167408;27;20417;-59
2022/11/09 01:50:51;;;;;;;7.55;1.52;;;;;;;14.26;66.50;100478.59;5156083;27;20047;-59
2022/11/09 01:53:24;;;;;;;4.43;1.48;;;;;;;14.24;66.45;100481.56;5153625;27;20050;-59
2022/11/09 01:55:56;;;;;;;4.18;1.73;;;;;;;14.23;66.03;100477.22;5167810;27;20047;-59
2022/11/09 01:58:28;;;;;;;5.63;1.85;;;;;;;14.24;66.21;100469.94;5162074;27;20046;-59
2022/11/09 02:00:58;;;;;;;3.58;1.27;;;;;;;14.23;66.02;100466.41;5166336;27;20043;-59
2022/11/09 02:03:31;;;;;;;2.90;1.25;;;;;;;14.22;65.98;100462.06;5162708;27;20050;-59
2022/11/09 02:06:01;;;;;;;8.00;1.70;;;;;;;14.22;66.17;100475.59;5166331;27;20042;-59
2022/11/09 02:08:30;;;;;;;5.10;1.63;;;;;;;14.22;65.99;100461.25;5165400;27;20039;-59
2022/11/09 02:11:07;;;;;;;5.00;1.60;;;;;;;14.18;66.15;100460.13;5163075;27;20049;-59
2022/11/09 02:13:37;;;;;;;2.63;1.27;;;;;;;14.20;66.08;100474.22;5162570;27;20107;-60
2022/11/09 02:16:06;;;;;;;2.80;1.35;;;;;;;14.19;66.35;100472.59;5159770;27;20049;-60
2022/11/09 02:18:34;;;;;;;4.13;1.50;;;;;;;14.20;66.45;100466.91;5165780;27;20137;-59
2022/11/09 02:21:04;;;;;;;4.82;1.92;;;;;;;14.19;66.20;100465.28;5166540;27;20061;-60
2022/11/09 02:23:32;;;;;;;8.30;1.80;;;;;;;14.20;66.50;100476.91;5165509;27;20049;-60
2022/11/09 02:26:09;;;;;;;5.75;1.95;;;;;;;14.20;66.24;100483.13;5160714;27;20047;-60
2022/11/09 02:28:39;;;;;;;5.25;1.73;;;;;;;14.20;66.45;100471.50;5155152;27;20043;-60
2022/11/09 02:31:11;;;;;;;3.92;1.70;;;;;;;14.20;66.29;100485.03;5165627;27;20043;-60
2022/11/09 02:33:53;;;;;;;7.00;1.70;;;;;;;14.19;66.19;100494.19;5163339;27;20058;-60
2022/11/09 02:36:23;;;;;;;6.10;1.80;;;;;;;14.19;66.16;100488.81;5161655;27;20057;-60
2022/11/09 02:38:54;;;;;;;5.60;1.60;;;;;;;14.18;66.26;100487.97;5162540;27;20066;-60
2022/11/09 02:41:23;;;;;;;4.43;1.58;;;;;;;14.19;66.13;100489.63;5156971;27;20051;-60
2022/11/09 02:43:53;;;;;;;5.60;2.15;;;;;;;14.18;65.95;100484.47;5163614;27;20050;-59
2022/11/09 02:46:24;;;;;;;6.38;2.10;;;;;;;14.18;66.23;100485.28;5164296;27;20047;-60
2022/11/09 02:48:52;;;;;;;4.45;1.55;;;;;;;14.19;65.95;100486.09;5154577;27;20043;-59
2022/11/09 02:51:19;;;;;;;4.80;1.58;;;;;;;14.17;66.02;100475.53;5163337;27;20035;-60
2022/11/09 02:53:48;;;;;;;5.00;1.80;;;;;;;14.18;65.75;100482.56;5162621;27;20042;-60
2022/11/09 02:56:16;;;;;;;4.20;1.80;;;;;;;14.18;65.98;100481.75;5151806;27;20500;-60
2022/11/09 02:58:44;;;;;;;5.75;1.90;;;;;;;14.18;66.01;100476.34;5162834;27;20047;-59
2022/11/09 03:01:11;;;;;;;3.85;1.27;;;;;;;14.09;66.17;100440.88;5154043;27;20064;-60
2022/11/09 03:03:40;;;;;;;5.43;1.85;;;;;;;14.17;65.88;100453.91;5152503;27;20051;-59
2022/11/09 03:06:07;;;;;;;5.30;2.47;;;;;;;14.16;65.60;100456.88;5155344;27;20047;-60
2022/11/09 03:08:35;;;;;;;8.95;1.90;;;;;;;14.14;65.72;100454.44;5156858;27;20046;-60
2022/11/09 03:11:05;;;;;;;7.18;1.60;;;;;;;14.14;66.19;100467.94;5165283;27;20043;-60
2022/11/09 03:13:33;;;;;;;3.63;1.52;;;;;;;14.10;66.17;100464.13;5153316;27;20057;-59
2022/11/09 03:16:04;;;;;;;4.43;1.90;;;;;;;14.13;66.21;100471.72;5164558;27;20069;-59
2022/11/09 03:18:32;;;;;;;6.38;1.63;;;;;;;14.13;66.31;100489.81;5158271;27;20436;-59
2022/11/09 03:21:03;;;;;;;3.92;1.52;;;;;;;14.11;65.95;100500.06;5155881;27;20074;-60
2022/11/09 03:23:31;;;;;;;6.10;1.85;;;;;;;14.11;66.23;100503.56;5155790;27;20043;-59
2022/11/09 03:25:59;;;;;;;3.95;1.67;;;;;;;14.12;66.32;100501.69;5163843;27;20050;-60
2022/11/09 03:28:28;;;;;;;4.57;1.65;;;;;;;14.11;66.27;100506.28;5163946;27;20038;-59
2022/11/09 03:30:55;;;;;;;6.80;1.83;;;;;;;14.11;65.86;100505.47;5163486;27;20370;-59
2022/11/09 03:33:23;;;;;;;5.40;1.67;;;;;;;14.11;66.26;100514.38;5162425;27;20062;-60
2022/11/09 03:35:51;;;;;;;6.93;2.20;;;;;;;14.10;66.41;100518.16;5156831;27;20156;-60
2022/11/09 03:38:18;;;;;;;3.45;1.88;;;;;;;14.10;66.47;100517.34;5163376;27;20096;-60
2022/11/09 03:40:46;;;;;;;6.63;2.13;;;;;;;14.09;66.55;100519.22;5165507;27;20050;-60
2022/11/09 03:43:14;;;;;;;7.28;1.70;;;;;;;14.09;66.41;100529.22;5167306;27;20042;-59
2022/11/09 03:45:43;;;;;;;7.45;2.00;;;;;;;14.08;66.63;100527.59;5166542;27;20055;-60
2022/11/09 03:48:11;;;;;;;7.68;2.03;;;;;;;14.08;66.31;100533.00;5161161;27;20047;-59
2022/11/09 03:50:39;;;;;;;5.90;2.10;;;;;;;14.06;66.33;100533.25;5167578;27;20050;-59
2022/11/09 03:53:08;;;;;;;6.10;1.83;;;;;;;14.07;66.43;100545.69;5169769;27;20050;-60
2022/11/09 03:55:36;;;;;;;7.43;2.67;;;;;;;14.07;66.21;100542.16;5164073;27;20057;-59
2022/11/09 03:58:05;;;;;;;5.53;1.77;;;;;;;14.07;66.31;100545.69;5168781;27;20047;-60
2022/11/09 04:00:34;;;;;;;4.78;1.58;;;;;;;14.07;66.58;100542.16;5166350;27;20055;-59
2022/11/09 04:03:03;;;;;;;5.05;1.90;;;;;;;14.07;66.73;100550.28;5158560;27;20051;-59
2022/11/09 04:05:31;;;;;;;6.53;1.65;;;;;;;14.06;66.54;100554.88;5167563;27;20394;-59
2022/11/09 04:07:59;;;;;;;5.78;1.60;;;;;;;14.06;66.57;100559.44;5165529;27;20396;-60
2022/11/09 04:10:27;;;;;;;5.13;1.92;;;;;;;14.06;66.24;100551.34;5173534;27;21257;-61
2022/11/09 04:12:55;;;;;;;7.43;1.90;;;;;;;14.06;66.53;100559.44;5162916;27;20039;-60
2022/11/09 04:15:23;;;;;;;5.13;1.35;;;;;;;14.06;66.21;100556.75;5168510;27;20061;-59
2022/11/09 04:17:55;;;;;;;8.00;2.00;;;;;;;14.05;66.43;100561.34;5167081;27;20042;-61
2022/11/09 04:20:25;;;;;;;7.30;1.55;;;;;;;14.04;66.42;100564.28;5169197;27;20161;-60
2022/11/09 04:22:56;;;;;;;6.50;1.90;;;;;;;14.05;66.79;100561.34;5163240;27;20039;-59
2022/11/09 04:25:24;;;;;;;4.53;1.90;;;;;;;14.04;66.56;100561.59;5161168;27;20046;-60
2022/11/09 04:27:56;;;;;;;9.32;1.92;;;;;;;14.04;66.19;100556.19;5156481;27;20051;-59
2022/11/09 04:30:26;;;;;;;5.65;1.88;;;;;;;14.03;66.56;100563.47;5164458;27;20046;-59
2022/11/09 04:32:54;;;;;;;7.72;2.00;;;;;;;14.03;66.34;100571.56;5166012;27;20047;-59
2022/11/09 04:35:23;;;;;;;5.07;1.60;;;;;;;14.01;66.40;100582.63;5168134;27;20586;-60
2022/11/09 04:37:55;;;;;;;8.40;2.22;;;;;;;14.01;66.50;100581.81;5169246;27;20050;-60
2022/11/09 04:40:23;;;;;;;4.57;2.13;;;;;;;14.01;66.40;100582.63;5165348;27;20050;-59
2022/11/09 04:42:51;;;;;;;6.60;2.10;;;;;;;14.02;66.43;100586.16;5168252;27;20129;-60
2022/11/09 04:45:20;;;;;;;8.60;2.78;;;;;;;14.01;66.28;100590.75;5159480;27;20057;-61
2022/11/09 04:47:48;;;;;;;4.65;1.70;;;;;;;13.99;66.37;100592.88;5161131;27;20414;-61
2022/11/09 04:50:16;;;;;;;6.13;2.05;;;;;;;13.98;66.84;100593.94;5163393;27;20050;-59
2022/11/09 04:52:45;;;;;;;5.78;1.70;;;;;;;13.97;66.27;100592.31;5155272;27;20042;-60
2022/11/09 04:55:12;;;;;;;5.13;1.52;;;;;;;13.97;66.43;100600.41;5168970;27;20047;-60
2022/11/09 04:57:40;;;;;;;5.55;1.75;;;;;;;13.97;66.57;100596.91;5155814;27;20055;-60
2022/11/09 05:00:09;;;;;;;5.07;1.75;;;;;;;13.97;66.75;100596.91;5163715;27;20059;-60
2022/11/09 05:02:37;;;;;;;5.45;1.63;;;;;;;13.94;66.63;100590.13;5160172;27;20409;-60
2022/11/09 05:05:05;;;;;;;6.65;1.98;;;;;;;13.94;66.87;100589.28;5162502;27;20053;-60
2022/11/09 05:07:33;;;;;;;7.30;1.70;;;;;;;13.93;66.50;100587.66;5168689;27;20051;-60
2022/11/09 05:10:02;;;;;;;4.72;1.52;;;;;;;13.91;66.47;100593.31;5165964;27;20160;-60
2022/11/09 05:12:30;;;;;;;5.20;1.60;;;;;;;13.92;66.48;100591.44;5162170;27;20057;-60
2022/11/09 05:14:57;;;;;;;7.40;1.65;;;;;;;13.90;66.85;100577.34;5161614;27;20065;-60
2022/11/09 05:17:25;;;;;;;5.07;1.45;;;;;;;13.89;66.59;100576.53;5166651;27;20053;-60
2022/11/09 05:19:53;;;;;;;5.88;1.92;;;;;;;13.89;66.48;100581.94;5166748;27;20064;-60
2022/11/09 05:25:10;;;;;;;5.60;1.70;;;;;;;13.87;66.91;100581.38;5154926;27;20054;-61
2022/11/09 05:27:38;;;;;;;6.68;1.67;;;;;;;13.87;66.69;100589.47;5149217;27;20708;-61
2022/11/09 05:30:07;;;;;;;7.25;1.92;;;;;;;13.87;66.78;100581.38;5165756;27;20058;-61
2022/11/09 05:32:38;;;;;;;7.40;2.05;;;;;;;13.89;66.75;100581.13;5165657;27;20039;-60
2022/11/09 05:35:06;;;;;;;6.63;1.90;;;;;;;13.87;66.72;100578.66;5167894;27;20054;-60
2022/11/09 05:37:34;;;;;;;5.18;1.80;;;;;;;13.86;66.77;100579.78;5160579;27;20380;-61
2022/11/09 05:40:02;;;;;;;7.00;1.75;;;;;;;13.85;66.60;100590.81;5168033;27;20060;-60
2022/11/09 05:42:31;;;;;;;6.93;1.90;;;;;;;13.84;66.94;100583.78;5161801;27;20058;-60
2022/11/09 05:44:59;;;;;;;6.88;1.80;;;;;;;13.84;66.88;100586.50;5164279;27;20053;-58
2022/11/09 05:47:46;;;;;;;7.43;2.00;;;;;;;13.84;66.96;100587.31;5157852;27;20564;-58
2022/11/09 05:50:16;;;;;;;4.68;2.13;;;;;;;13.85;66.41;100580.03;5168296;27;20050;-59
2022/11/09 05:52:43;;;;;;;4.40;1.42;;;;;;;13.84;66.36;100589.19;5174640;27;20039;-60
2022/11/09 05:55:11;;;;;;;6.78;1.92;;;;;;;13.84;66.90;100583.78;5163191;27;20069;-60
2022/11/09 05:57:40;;;;;;;6.82;1.90;;;;;;;13.84;66.92;100586.50;5167379;27;20053;-60
2022/11/09 06:00:09;;;;;;;4.88;1.58;;;;;;;13.84;66.59;100583.78;5165271;27;20043;-60
2022/11/09 06:02:37;;;;;;;5.40;1.95;;;;;;;13.84;66.36;100586.50;5165812;27;20088;-60
2022/11/09 06:05:06;;;;;;;7.85;1.60;;;;;;;13.84;66.86;100586.50;5160683;27;20043;-60
2022/11/09 06:07:33;;;;;;;7.25;1.90;;;;;;;13.83;66.64;100591.06;5163813;27;20383;-60
2022/11/09 06:10:01;;;;;;;4.55;1.55;;;;;;;13.84;66.36;100594.59;5164722;27;20488;-60
2022/11/09 06:12:29;;;;;;;4.95;2.15;;;;;;;13.82;66.85;100588.63;5162130;27;20047;-61
2022/11/09 06:14:58;;;;;;;6.50;1.73;;;;;;;13.83;66.43;100592.97;5156682;27;20055;-59
2022/11/09 06:17:25;;;;;;;4.50;1.38;;;;;;;13.82;66.71;100594.84;5166884;27;20395;-60
2022/11/09 06:19:53;;;;;;;6.35;1.65;;;;;;;13.83;66.90;100599.19;5156583;27;20049;-60
2022/11/09 06:22:21;;;;;;;5.35;2.00;;;;;;;13.82;66.78;100599.44;5152359;27;20483;-60
2022/11/09 06:24:49;;;;;;;9.85;2.65;;;;;;;13.81;66.72;100600.50;5156313;27;20043;-60
2022/11/09 06:27:16;;;;;;;8.73;2.20;;;;;;;13.82;66.53;100602.94;5160475;27;20043;-59
2022/11/09 06:29:44;;;;;;;9.07;2.08;;;;;;;13.82;66.85;100602.13;5165442;27;20054;-59
2022/11/09 06:32:13;;;;;;;4.57;1.58;;;;;;;13.81;66.80;100605.91;5165237;27;20047;-60
2022/11/09 06:34:42;;;;;;;3.95;1.45;;;;;;;13.82;66.87;100612.94;5166458;27;20042;-59
2022/11/09 06:37:09;;;;;;;7.05;2.00;;;;;;;13.81;66.97;100606.72;5164368;27;20464;-59
2022/11/09 06:39:37;;;;;;;4.10;1.60;;;;;;;13.82;66.37;100608.34;5165654;27;20068;-59
2022/11/09 06:42:05;;;;;;;7.07;1.65;;;;;;;13.80;66.63;100618.59;5164234;27;20051;-59
2022/11/09 06:44:32;;;;;;;6.93;1.80;;;;;;;13.78;66.41;100617.19;5164862;27;20035;-59
2022/11/09 06:47:00;;;;;;;5.70;1.90;;;;;;;13.75;66.98;100615.81;5163207;27;20061;-60
2022/11/09 06:49:29;;;;;;;4.05;1.70;;;;;;;13.75;66.98;100623.09;5166068;27;20038;-60
2022/11/09 06:51:57;;;;;;;5.78;1.60;;;;;;;13.73;66.68;100623.34;5160995;27;20051;-60
2022/11/09 06:54:24;;;;;;;8.25;1.83;;;;;;;13.71;67.00;100630.88;5165361;27;20035;-60
2022/11/09 06:56:54;;;;;;;9.65;2.22;;;;;;;13.71;67.10;100630.06;5162946;27;20125;-60
2022/11/09 06:59:22;;;;;;;6.38;1.70;;;;;;;13.71;66.93;100630.88;5161648;27;20049;-60
2022/11/09 07:01:50;;;;;;;7.68;2.17;;;;;;;13.70;67.15;100636.53;4798239;27;10000471;-60
2022/11/09 07:04:17;;;;;;;6.70;1.92;;;;;;;13.70;67.06;100636.53;5159464;27;20055;-60
2022/11/09 07:06:46;;;;;;;7.47;2.00;;;;;;;13.68;66.91;100626.78;5160215;27;20047;-61
2022/11/09 07:09:14;;;;;;;7.45;2.10;;;;;;;13.70;67.15;100631.13;5161368;27;20046;-61
2022/11/09 07:11:42;;;;;;;4.20;1.80;;;;;;;13.68;66.94;100629.50;5156916;27;20050;-60
2022/11/09 07:14:10;;;;;;;5.25;1.65;;;;;;;13.68;67.09;100636.78;5157883;27;20054;-60
2022/11/09 07:16:37;;;;;;;8.55;2.03;;;;;;;13.65;67.08;100645.38;5158311;27;20479;-61
2022/11/09 07:19:05;;;;;;;7.57;2.03;;;;;;;13.63;67.42;100648.31;5162277;27;20055;-61
2022/11/09 07:21:33;;;;;;;7.78;2.33;;;;;;;13.65;67.27;100646.19;5142857;27;20066;-61
2022/11/09 07:24:02;;;;;;;7.45;1.90;;;;;;;13.65;67.32;100645.38;5156677;27;20081;-61
2022/11/09 07:26:29;;;;;;;9.27;2.25;;;;;;;13.64;67.07;100652.66;5143882;27;20047;-61
2022/11/09 07:28:57;;;;;;;6.47;1.80;;;;;;;13.64;66.95;100652.66;5154780;27;20062;-60
2022/11/09 07:31:28;;;;;;;9.57;2.05;;;;;;;13.61;67.15;100657.72;5149239;27;20042;-60
2022/11/09 07:33:57;;;;;;;6.03;2.00;;;;;;;13.59;67.25;100651.75;5159408;27;20057;-59
2022/11/09 07:36:24;;;;;;;5.57;2.05;;;;;;;13.58;67.40;100652.81;5158838;27;20129;-59
2022/11/09 07:38:52;;;;;;;7.63;2.33;;;;;;;13.59;67.35;100663.38;5160885;27;20061;-61
2022/11/09 07:41:21;;;;;;;4.82;1.63;;;;;;;13.58;67.06;100652.81;5151684;27;20055;-61
2022/11/09 07:43:49;;;;;;;8.27;2.22;;;;;;;13.59;67.10;100655.28;5160543;27;20491;-62
2022/11/09 07:46:16;;;;;;;7.93;2.10;;;;;;;13.59;67.09;100657.16;5162004;27;20495;-60
2022/11/09 07:48:44;;;;;;;9.35;2.60;;;;;;;13.59;67.04;100662.56;5158969;27;20057;-62
2022/11/09 07:51:12;;;;;;;7.50;2.40;;;;;;;13.58;67.37;100653.63;5155263;27;20047;-60
2022/11/09 07:53:40;;;;;;;9.13;2.03;;;;;;;13.58;67.31;100660.91;5160606;27;20038;-58
2022/11/09 07:56:08;;;;;;;7.05;2.33;;;;;;;13.58;67.21;100660.91;5157389;27;20137;-60
2022/11/09 07:58:37;;;;;;;8.60;2.05;;;;;;;13.56;67.23;100671.16;5161284;27;20050;-60
2022/11/09 08:01:07;;;;;;;8.52;1.98;;;;;;;13.58;66.91;100674.41;5160896;27;20039;-59
2022/11/09 08:03:35;;;;;;;6.72;2.17;;;;;;;13.59;66.99;100673.34;5156857;27;20042;-60
2022/11/09 08:06:03;;;;;;;7.25;1.80;;;;;;;13.59;66.98;100679.56;5160237;27;20061;-59
2022/11/09 08:08:31;;;;;;;5.53;2.40;;;;;;;13.59;67.42;100676.06;5164150;27;20145;-64
2022/11/09 08:10:58;;;;;;;9.60;2.15;;;;;;;13.57;67.78;100681.69;5158892;27;20054;-60
2022/11/09 08:13:26;;;;;;;9.23;2.20;;;;;;;13.58;67.78;100677.94;5159468;27;20046;-59
2022/11/09 08:15:55;;;;;;;8.32;1.92;;;;;;;13.60;67.75;100675.81;5156388;27;20051;-59
2022/11/09 08:18:23;;;;;;;7.85;2.10;;;;;;;13.61;67.09;100676.63;5164901;27;20050;-59
2022/11/09 08:20:51;;;;;;;5.47;1.80;;;;;;;13.61;67.19;100685.56;5148707;27;20100;-59
2022/11/09 08:23:20;;;;;;;6.32;1.90;;;;;;;13.60;66.90;100692.00;5149171;27;20054;-59
2022/11/09 08:25:50;;;;;;;5.18;1.80;;;;;;;13.62;66.97;100694.47;5164027;27;20126;-59
2022/11/09 08:28:18;;;;;;;7.43;1.90;;;;;;;13.62;67.33;100689.88;5159458;27;20514;-59
2022/11/09 08:30:46;;;;;;;5.32;1.60;;;;;;;13.61;67.18;100692.84;5169396;27;20436;-59
2022/11/09 08:33:15;;;;;;;8.60;1.58;;;;;;;13.61;67.27;100690.94;5166713;27;20051;-59
2022/11/09 08:35:43;;;;;;;6.80;1.77;;;;;;;13.62;67.34;100700.69;5169929;27;20042;-59
2022/11/09 08:38:15;;;;;;;8.85;2.67;;;;;;;13.63;67.22;100706.91;5156662;27;20055;-60
2022/11/09 08:40:43;;;;;;;7.15;1.80;;;;;;;13.62;67.59;100707.97;5167130;27;20066;-59
2022/11/09 08:43:12;;;;;;;8.75;2.40;;;;;;;13.61;67.34;100709.84;5167175;27;20057;-60
2022/11/09 08:45:40;;;;;;;6.43;3.08;;;;;;;13.62;67.44;100705.28;5168137;27;20042;-60
2022/11/09 08:48:10;;;;;;;7.97;1.80;;;;;;;13.62;67.40;100700.69;5158246;27;20043;-59
2022/11/09 08:50:39;;;;;;;6.57;1.88;;;;;;;13.63;67.48;100702.31;5166673;27;20054;-59
2022/11/09 08:53:07;;;;;;;8.95;2.08;;;;;;;13.63;67.44;100707.72;5158817;27;20042;-59
2022/11/09 08:55:35;;;;;;;4.93;1.73;;;;;;;13.63;67.32;100698.81;5165494;27;20047;-59
2022/11/09 08:58:04;;;;;;;8.95;2.03;;;;;;;13.63;67.26;100706.91;5153473;27;20043;-60
2022/11/09 09:00:31;;;;;;;6.85;1.98;;;;;;;13.64;67.20;100708.53;5160585;27;20047;-60
2022/11/09 09:03:03;;;;;;;5.65;1.90;;;;;;;13.64;67.40;100701.25;4804115;27;9999749;-59
2022/11/09 09:05:31;;;;;;;10.25;2.10;;;;;;;13.65;67.50;100702.91;5163729;27;20150;-59
2022/11/09 09:08:01;;;;;;;7.95;2.00;;;;;;;13.66;66.98;100714.53;5146876;27;20051;-58
2022/11/09 09:10:28;;;;;;;7.32;1.92;;;;;;;13.65;67.33;100705.59;5157009;27;20518;-59
2022/11/09 09:12:56;;;;;;;6.30;2.35;;;;;;;13.66;67.18;100699.13;5150839;27;20077;-60
2022/11/09 09:15:24;;;;;;;8.98;2.03;;;;;;;13.67;67.63;100708.88;5160352;27;21796;-58
2022/11/09 09:17:52;;;;;;;5.63;2.10;;;;;;;13.68;67.21;100715.09;5164751;27;20047;-58
2022/11/09 09:20:20;;;;;;;5.43;1.83;;;;;;;13.69;67.27;100711.31;5150144;27;20047;-58
2022/11/09 09:22:48;;;;;;;5.10;1.65;;;;;;;13.71;67.26;100711.91;5144273;27;20094;-59
2022/11/09 09:25:17;;;;;;;7.50;2.38;;;;;;;13.70;67.17;100709.44;5149377;27;20055;-58
2022/11/09 09:27:45;;;;;;;6.28;1.80;;;;;;;13.75;67.36;100710.34;5143989;27;20061;-59
2022/11/09 09:30:13;;;;;;;7.93;2.55;;;;;;;13.74;67.39;100716.81;5143766;27;20059;-58
2022/11/09 09:32:41;;;;;;;4.72;1.65;;;;;;;13.73;67.44;100719.75;5163178;27;20057;-58
2022/11/09 09:35:10;;;;;;;6.13;1.73;;;;;;;13.73;67.50;100720.56;5158994;27;20047;-59
2022/11/09 09:37:38;;;;;;;6.03;1.73;;;;;;;13.73;67.35;100717.06;5164683;27;20137;-59
2022/11/09 09:40:06;;;;;;;7.45;1.83;;;;;;;13.73;67.58;100722.47;5161410;27;20055;-58
2022/11/09 09:42:42;;;;;;;6.80;2.03;;;;;;;13.72;67.63;100735.16;5162444;27;20057;-58
2022/11/09 09:45:17;;;;;;;6.03;1.70;;;;;;;13.75;67.40;100723.03;5162579;27;20058;-58
2022/11/09 09:47:51;;;;;;;7.88;2.22;;;;;;;13.75;67.45;100733.84;5162602;27;20055;-59
2022/11/09 09:50:22;;;;;;;8.65;2.10;;;;;;;13.76;67.50;100730.06;5162985;27;20049;-58
2022/11/09 09:52:57;;;;;;;10.48;2.30;;;;;;;13.78;67.26;100744.16;5153289;27;20051;-59
2022/11/09 09:55:50;;;;;;;7.68;1.95;;;;;;;13.81;67.60;100743.66;5151620;27;20103;-58
2022/11/09 09:58:25;;;;;;;7.90;2.30;;;;;;;13.81;67.49;100738.25;5157223;27;20057;-58
2022/11/09 10:00:58;;;;;;;3.85;1.35;;;;;;;13.83;67.72;100749.63;5162311;27;20053;-57
2022/11/09 10:03:26;;;;;;;6.82;1.92;;;;;;;13.83;67.67;100752.34;5157694;27;20142;-58
2022/11/09 10:06:04;;;;;;;12.73;2.50;;;;;;;13.84;67.31;100756.69;5162421;27;20340;-58
2022/11/09 10:08:44;;;;;;;7.03;2.05;;;;;;;13.84;67.30;100762.06;5151331;27;20053;-58
2022/11/09 10:11:22;;;;;;;9.25;2.03;;;;;;;13.81;67.63;100752.56;5158944;27;20057;-59
2022/11/09 10:14:07;;;;;;;9.20;1.92;;;;;;;13.84;67.27;100775.59;5160848;27;20123;-58
2022/11/09 10:16:40;;;;;;;7.45;1.75;;;;;;;13.85;67.55;100763.72;5163205;27;20038;-58
2022/11/09 10:19:35;;;;;;;5.55;1.95;;;;;;;13.86;67.19;100762.66;5164890;27;20056;-59
2022/11/09 10:22:10;;;;;;;9.18;2.17;;;;;;;13.86;67.26;100771.56;5160117;27;20053;-59
2022/11/09 10:24:48;;;;;;;9.45;2.30;;;;;;;13.88;67.51;100766.72;5159802;27;20043;-59
2022/11/09 10:27:38;;;;;;;5.78;1.90;;;;;;;13.90;67.64;100764.59;5159141;27;20121;-66
2022/11/09 10:30:14;;;;;;;6.40;2.25;;;;;;;13.91;67.32;100760.81;5156772;27;20046;-59
2022/11/09 10:32:44;;;;;;;5.88;1.63;;;;;;;13.93;67.32;100755.16;5142539;27;20059;-59
2022/11/09 10:35:18;;;;;;;4.93;1.70;;;;;;;13.96;67.59;100757.38;5157582;27;20060;-59
2022/11/09 10:37:48;;;;;;;6.70;1.63;;;;;;;13.98;67.55;100757.94;5160881;27;20106;-59
2022/11/09 10:40:21;;;;;;;12.50;1.85;;;;;;;13.97;66.99;100765.25;5155430;27;20051;-59
2022/11/09 10:42:53;;;;;;;9.45;2.53;;;;;;;14.00;67.46;100758.53;5162122;27;20086;-58
2022/11/09 10:45:29;;;;;;;5.55;1.55;;;;;;;14.01;67.39;100762.88;5163040;27;20042;-58
2022/11/09 10:47:57;;;;;;;8.43;2.25;;;;;;;14.01;67.00;100763.69;5155441;27;20058;-58
2022/11/09 10:50:30;;;;;;;8.65;2.22;;;;;;;14.02;66.87;100776.13;5162404;27;20046;-59
2022/11/09 10:53:16;;;;;;;7.03;1.60;;;;;;;14.04;67.00;100786.69;5150687;27;20061;-58
2022/11/09 10:55:53;;;;;;;8.27;1.60;;;;;;;14.06;67.00;100786.44;5148632;27;20045;-60
2022/11/09 10:58:30;;;;;;;6.45;1.88;;;;;;;14.06;67.04;100789.97;5150609;27;20046;-60
2022/11/09 11:01:00;;;;;;;;;;;;;;;14.07;67.10;100791.59;5164611;27;20054;-60
2022/11/09 11:03:29;;;;;;;4.82;1.67;;;;;;;14.07;66.65;100786.19;5164927;27;19927;-60
2022/11/09 11:05:58;;;;;;;7.15;1.63;;;;;;;14.08;66.67;100793.25;5159862;27;20048;-59
2022/11/09 11:08:33;;;;;;;10.85;2.28;;;;;;;14.09;66.93;100791.34;5164562;27;20129;-60
2022/11/09 11:11:20;;;;;;;6.75;2.00;;;;;;;14.09;66.10;100794.88;5165528;27;20050;-61
2022/11/09 11:14:13;;;;;;;7.65;1.80;;;;;;;14.07;65.40;100788.09;5156662;27;20062;-60
2022/11/09 11:16:52;;;;;;;6.97;2.30;;;;;;;14.10;65.63;100799.22;5158326;27;20349;-60
2022/11/09 11:19:41;;;;;;;6.38;1.88;;;;;;;14.08;65.38;100792.41;5159808;27;20511;-60
2022/11/09 11:22:21;;;;;;;7.82;1.92;;;;;;;14.10;65.36;100799.22;5155396;27;20079;-60
2022/11/09 11:24:55;;;;;;;11.88;3.40;;;;;;;14.13;65.13;100806.00;5162250;27;20039;-59
2022/11/09 11:27:29;;;;;;;7.90;1.88;;;;;;;14.14;65.75;100794.13;5163951;27;20111;-60
2022/11/09 11:30:05;;;;;;;12.13;2.10;;;;;;;14.12;65.11;100794.38;5153368;27;20060;-60
2022/11/09 11:32:34;;;;;;;11.25;1.75;;;;;;;14.14;64.46;100791.44;5159214;27;20034;-60
2022/11/09 11:35:04;;;;;;;6.13;2.38;;;;;;;14.13;65.15;100803.31;5161422;27;20093;-60
2022/11/09 11:37:46;;;;;;;11.20;2.15;;;;;;;14.14;64.84;100811.16;5153768;27;20055;-61
2022/11/09 11:40:20;;;;;;;11.60;2.05;;;;;;;14.14;64.83;100804.94;5160900;27;20054;-60